Time;durP1;ratioP1;P1;durP2;ratioP2;P2;SDS_P1;SDS_P2;PMS_P1;PMS_P2;Temp;Humidity;BMP_temperature;BMP_pressure;BME280_temperature;BME280_humidity;BME280_pressure;Samples;Min_cycle;Max_cycle;Signal;HPM_P1;HPM_P2
2022/04/24 00:00:21;;;;;;;8.88;7.97;;;;;;;9.63;100.00;163081.69;5023329;28;20049;-58
2022/04/24 00:02:46;;;;;;;7.63;6.93;;;;;;;9.60;100.00;163073.56;5020611;28;20045;-58
2022/04/24 00:05:12;;;;;;;8.40;7.65;;;;;;;9.59;100.00;163070.84;5022155;28;20025;-58
2022/04/24 00:07:37;;;;;;;7.88;7.13;;;;;;;9.52;100.00;163054.69;5021764;28;20037;-58
2022/04/24 00:10:04;;;;;;;9.15;7.55;;;;;;;9.46;100.00;163037.13;5021032;28;20413;-58
2022/04/24 00:12:29;;;;;;;7.85;7.05;;;;;;;9.40;100.00;163022.31;5020699;28;20040;-58
2022/04/24 00:14:55;;;;;;;9.75;7.45;;;;;;;9.35;100.00;163008.81;5025872;28;20025;-58
2022/04/24 00:17:20;;;;;;;10.50;7.88;;;;;;;9.37;100.00;163014.22;5019058;28;20405;-58
2022/04/24 00:19:47;;;;;;;8.18;7.47;;;;;;;9.38;100.00;163015.59;5025427;28;20025;-58
2022/04/24 00:22:12;;;;;;;12.20;7.97;;;;;;;9.38;100.00;163016.91;5020850;28;20041;-58
2022/04/24 00:24:37;;;;;;;9.63;7.85;;;;;;;9.34;100.00;163006.16;5023238;28;20563;-57
2022/04/24 00:27:03;;;;;;;10.80;8.05;;;;;;;9.28;100.00;162989.91;5024468;28;20392;-58
2022/04/24 00:29:28;;;;;;;8.73;7.68;;;;;;;9.31;100.00;162998.03;5021663;28;20022;-57
2022/04/24 00:31:54;;;;;;;10.50;7.68;;;;;;;9.26;100.00;162984.56;5023910;28;20083;-57
2022/04/24 00:34:19;;;;;;;11.48;9.30;;;;;;;9.23;100.00;162976.44;5025071;28;20477;-57
2022/04/24 00:36:45;;;;;;;13.93;10.05;;;;;;;9.20;100.00;162971.03;5019432;28;20128;-57
2022/04/24 00:39:11;;;;;;;9.57;8.13;;;;;;;9.04;100.00;162927.94;5021612;28;20139;-57
2022/04/24 00:41:47;;;;;;;9.75;8.85;;;;;;;9.13;100.00;162952.16;5020885;28;20061;-57
2022/04/24 00:44:12;;;;;;;9.07;8.25;;;;;;;9.12;100.00;162949.47;5022181;28;20018;-57
2022/04/24 00:46:50;;;;;;;9.32;8.43;;;;;;;9.11;100.00;162946.81;5023466;28;20543;-57
2022/04/24 00:49:16;;;;;;;9.50;8.52;;;;;;;9.12;100.00;162949.47;5023732;28;20022;-57
2022/04/24 00:51:43;;;;;;;8.75;8.00;;;;;;;9.10;100.00;162944.09;5021123;28;20064;-58
2022/04/24 00:54:10;;;;;;;9.98;8.88;;;;;;;9.13;100.00;162952.16;5020775;28;20022;-57
2022/04/24 00:56:39;;;;;;;9.63;8.63;;;;;;;9.09;100.00;162941.41;5030167;28;20045;-57
2022/04/24 00:59:07;;;;;;;13.95;9.05;;;;;;;9.09;100.00;162941.41;5023084;28;20028;-57
2022/04/24 01:01:33;;;;;;;9.10;8.18;;;;;;;9.06;100.00;162933.28;5020883;28;20474;-57
2022/04/24 01:04:01;;;;;;;15.55;10.70;;;;;;;9.01;100.00;162921.16;5022713;28;20038;-57
2022/04/24 01:06:27;;;;;;;11.07;8.48;;;;;;;8.98;100.00;162911.72;5020218;28;20090;-57
2022/04/24 01:08:53;;;;;;;10.27;9.27;;;;;;;8.97;100.00;162910.38;5022165;28;20029;-57
2022/04/24 01:11:19;;;;;;;11.52;9.10;;;;;;;8.98;100.00;162911.72;5020684;28;20056;-57
2022/04/24 01:13:44;;;;;;;10.68;9.57;;;;;;;8.97;100.00;162909.06;5020131;28;20096;-58
2022/04/24 01:16:10;;;;;;;8.90;7.72;;;;;;;8.93;100.00;162899.63;5019623;28;20471;-58
2022/04/24 01:18:36;;;;;;;9.15;7.78;;;;;;;8.91;100.00;162892.81;5027082;28;20025;-57
2022/04/24 01:21:08;;;;;;;9.20;8.00;;;;;;;8.86;100.00;162880.75;5029893;28;20040;-57
2022/04/24 01:23:34;;;;;;;9.63;8.63;;;;;;;8.89;100.00;162890.19;5026365;28;20044;-57
2022/04/24 01:25:59;;;;;;;10.30;9.25;;;;;;;8.88;100.00;162886.09;5020650;28;20045;-57
2022/04/24 01:28:24;;;;;;;10.38;8.93;;;;;;;8.83;100.00;162873.94;5020271;28;20428;-57
2022/04/24 01:30:50;;;;;;;10.73;8.85;;;;;;;8.80;100.00;162865.91;5020179;28;20022;-57
2022/04/24 01:33:15;;;;;;;12.02;10.32;;;;;;;8.83;100.00;162873.94;5023414;28;20029;-58
2022/04/24 01:35:40;;;;;;;11.20;10.05;;;;;;;8.80;100.00;162865.91;5019645;28;20022;-57
2022/04/24 01:38:06;;;;;;;11.70;8.02;;;;;;;8.77;100.00;162856.47;5019261;28;20018;-57
2022/04/24 01:40:31;;;;;;;12.65;7.78;;;;;;;8.71;100.00;162841.63;5021409;28;20036;-58
2022/04/24 01:42:56;;;;;;;13.48;9.90;;;;;;;8.74;100.00;162849.72;5018721;28;20493;-57
2022/04/24 01:45:22;;;;;;;12.07;8.50;;;;;;;8.73;100.00;162847.03;5020474;28;20441;-58
2022/04/24 01:47:47;;;;;;;8.40;7.70;;;;;;;8.69;100.00;162836.22;5009836;28;20049;-57
2022/04/24 01:50:12;;;;;;;8.45;7.65;;;;;;;8.63;100.00;162820.03;5010659;28;20025;-57
2022/04/24 01:52:37;;;;;;;9.93;8.93;;;;;;;8.66;100.00;162829.47;5005369;28;20038;-57
2022/04/24 01:55:03;;;;;;;12.57;9.25;;;;;;;8.62;100.00;162818.72;5002044;28;20030;-57
2022/04/24 01:57:29;;;;;;;10.93;8.77;;;;;;;8.59;100.00;162809.28;5015898;28;20034;-57
2022/04/24 01:59:54;;;;;;;7.68;6.90;;;;;;;8.55;100.00;162801.16;5021446;28;20025;-57
2022/04/24 02:02:19;;;;;;;11.65;8.40;;;;;;;8.54;100.00;162797.16;5020516;28;20034;-57
2022/04/24 02:04:45;;;;;;;8.35;7.55;;;;;;;8.53;100.00;162794.44;5021705;28;20033;-58
2022/04/24 02:07:11;;;;;;;11.18;8.23;;;;;;;8.51;100.00;162790.41;5017639;28;20037;-57
2022/04/24 02:09:38;;;;;;;9.10;8.18;;;;;;;8.48;100.00;162780.97;5020782;28;20053;-57
2022/04/24 02:12:04;;;;;;;15.23;7.78;;;;;;;8.42;100.00;162766.09;5020528;28;20657;-57
2022/04/24 02:14:30;;;;;;;7.93;7.13;;;;;;;8.38;100.00;162755.25;5018469;28;20049;-57
2022/04/24 02:16:55;;;;;;;11.18;8.88;;;;;;;8.37;100.00;162753.94;5020094;28;20037;-57
2022/04/24 02:19:20;;;;;;;8.07;7.28;;;;;;;8.35;100.00;162747.22;5026487;28;20033;-57
2022/04/24 02:21:46;;;;;;;7.40;6.75;;;;;;;8.33;100.00;162741.81;5019652;28;20041;-57
2022/04/24 02:24:11;;;;;;;8.85;7.53;;;;;;;8.31;100.00;162736.41;5019426;28;20018;-58
2022/04/24 02:26:37;;;;;;;11.27;7.68;;;;;;;8.32;100.00;162739.09;5022645;28;20112;-58
2022/04/24 02:29:03;;;;;;;10.88;7.90;;;;;;;8.29;100.00;162731.03;5019311;28;20024;-59
2022/04/24 02:31:28;;;;;;;7.45;6.45;;;;;;;8.22;100.00;162713.50;5019156;28;20037;-58
2022/04/24 02:33:53;;;;;;;8.20;7.40;;;;;;;8.13;100.00;162690.63;5020099;28;20038;-58
2022/04/24 02:36:18;;;;;;;10.73;8.10;;;;;;;8.10;100.00;162682.50;5021398;28;20038;-58
2022/04/24 02:38:44;;;;;;;10.82;8.50;;;;;;;8.09;100.00;162679.81;5018877;28;20022;-58
2022/04/24 02:41:09;;;;;;;10.32;7.72;;;;;;;8.12;100.00;162687.91;5022518;28;20095;-58
2022/04/24 02:43:34;;;;;;;6.78;5.97;;;;;;;8.11;100.00;162685.19;5018873;28;20409;-58
2022/04/24 02:46:00;;;;;;;11.80;8.48;;;;;;;8.12;100.00;162687.91;5018011;28;20029;-58
2022/04/24 02:48:27;;;;;;;9.32;7.15;;;;;;;8.08;100.00;162677.09;5023243;28;20091;-58
2022/04/24 02:50:53;;;;;;;10.38;8.38;;;;;;;8.03;100.00;162663.63;5019064;28;20408;-58
2022/04/24 02:53:18;;;;;;;13.05;8.25;;;;;;;7.99;100.00;162652.88;5019732;28;20041;-58
2022/04/24 02:55:43;;;;;;;8.02;6.57;;;;;;;7.96;100.00;162644.78;5012203;28;20025;-58
2022/04/24 02:58:09;;;;;;;13.93;9.18;;;;;;;7.93;100.00;162638.03;5026649;28;20453;-58
2022/04/24 03:00:43;;;;;;;8.60;7.70;;;;;;;7.89;100.00;162628.63;5027910;28;20436;-58
2022/04/24 03:03:09;;;;;;;8.02;6.55;;;;;;;7.84;100.00;162615.16;5030137;28;20037;-57
2022/04/24 03:05:35;;;;;;;11.82;7.18;;;;;;;7.79;100.00;162601.66;5027783;28;20033;-58
2022/04/24 03:08:00;;;;;;;12.27;7.72;;;;;;;7.78;100.00;162599.00;5030046;28;20025;-57
2022/04/24 03:10:25;;;;;;;9.52;8.57;;;;;;;7.72;100.00;162582.78;5033071;28;20036;-58
2022/04/24 03:12:51;;;;;;;11.35;7.40;;;;;;;7.71;100.00;162580.09;5032209;28;20040;-57
2022/04/24 03:15:16;;;;;;;7.93;7.10;;;;;;;7.69;100.00;162576.06;5033487;28;20556;-57
2022/04/24 03:17:42;;;;;;;11.30;7.15;;;;;;;7.66;100.00;162566.63;5031954;28;20444;-58
2022/04/24 03:20:10;;;;;;;8.13;7.13;;;;;;;7.65;100.00;162565.31;5028498;28;20037;-57
2022/04/24 03:22:35;;;;;;;8.88;7.22;;;;;;;7.62;100.00;162558.56;5030891;28;20041;-58
2022/04/24 03:25:02;;;;;;;8.40;7.25;;;;;;;7.55;100.00;162538.34;5033558;28;20035;-58
2022/04/24 03:27:28;;;;;;;7.45;6.55;;;;;;;7.49;100.00;162523.50;5031706;28;20045;-58
2022/04/24 03:29:53;;;;;;;7.07;6.43;;;;;;;7.50;100.00;162524.88;5033292;28;20413;-58
2022/04/24 03:32:18;;;;;;;8.25;7.45;;;;;;;7.43;100.00;162508.72;5032228;28;20037;-58
2022/04/24 03:34:44;;;;;;;6.88;6.03;;;;;;;7.41;100.00;162502.00;5032462;28;20033;-58
2022/04/24 03:37:09;;;;;;;8.55;6.97;;;;;;;7.41;100.00;162503.31;5031674;28;20038;-58
2022/04/24 03:39:34;;;;;;;8.52;6.70;;;;;;;7.40;100.00;162499.28;5032850;28;20150;-58
2022/04/24 03:42:01;;;;;;;7.90;7.10;;;;;;;7.37;100.00;162492.50;5031461;28;20128;-58
2022/04/24 03:44:27;;;;;;;7.95;7.18;;;;;;;7.32;100.00;162479.06;5032670;28;20025;-57
2022/04/24 03:46:52;;;;;;;8.32;7.55;;;;;;;7.28;100.00;162469.63;5031799;28;20041;-57
2022/04/24 03:49:17;;;;;;;9.15;6.63;;;;;;;7.25;100.00;162461.59;5032180;28;20029;-57
2022/04/24 03:51:43;;;;;;;8.43;6.30;;;;;;;7.25;100.00;162461.59;5031071;28;20038;-57
2022/04/24 03:54:08;;;;;;;8.32;6.90;;;;;;;7.20;100.00;162448.06;5032962;28;20033;-58
2022/04/24 03:56:34;;;;;;;10.07;6.68;;;;;;;7.20;100.00;162448.06;5031211;28;20030;-58
2022/04/24 03:59:00;;;;;;;7.30;6.60;;;;;;;7.17;100.00;162440.03;5031977;28;20052;-58
2022/04/24 04:01:25;;;;;;;37.60;10.23;;;;;;;7.13;100.00;162430.59;5031173;28;20046;-58
2022/04/24 04:03:51;;;;;;;7.80;7.07;;;;;;;7.13;100.00;162429.22;5032977;28;20037;-59
2022/04/24 04:06:17;;;;;;;13.00;7.07;;;;;;;7.07;100.00;162413.06;5031285;28;20033;-58
2022/04/24 04:08:42;;;;;;;18.13;9.05;;;;;;;7.02;100.00;162400.94;5032564;28;20022;-58
2022/04/24 04:11:07;;;;;;;11.00;7.13;;;;;;;7.04;100.00;162404.97;5031556;28;20041;-58
2022/04/24 04:13:33;;;;;;;6.90;6.07;;;;;;;7.02;100.00;162400.94;5031732;28;20469;-58
2022/04/24 04:15:59;;;;;;;8.35;6.88;;;;;;;7.04;100.00;162406.34;5031229;28;20043;-57
2022/04/24 04:18:24;;;;;;;7.20;6.57;;;;;;;7.01;100.00;162398.25;5031961;28;20025;-58
2022/04/24 04:20:49;;;;;;;7.35;6.65;;;;;;;7.05;100.00;162407.66;5029835;28;20120;-58
2022/04/24 04:23:15;;;;;;;7.72;6.88;;;;;;;7.06;100.00;162410.38;5032047;28;20048;-58
2022/04/24 04:25:40;;;;;;;7.70;6.70;;;;;;;7.01;100.00;162398.25;5010901;28;20076;-57
2022/04/24 04:28:05;;;;;;;8.48;6.47;;;;;;;6.96;100.00;162386.13;5012247;28;20088;-58
2022/04/24 04:30:31;;;;;;;9.93;5.47;;;;;;;6.98;100.00;162391.53;5012336;28;20034;-57
2022/04/24 04:32:56;;;;;;;10.98;6.53;;;;;;;6.95;100.00;162383.47;5024867;28;20076;-56
2022/04/24 04:35:23;;;;;;;6.35;5.65;;;;;;;7.01;100.00;162396.91;5031738;28;20382;-56
2022/04/24 04:37:49;;;;;;;6.85;6.20;;;;;;;6.98;100.00;162391.53;5011866;28;20034;-56
2022/04/24 04:40:16;;;;;;;6.50;5.93;;;;;;;6.98;100.00;162391.53;5012043;28;20069;-58
2022/04/24 04:42:41;;;;;;;7.25;6.47;;;;;;;6.95;100.00;162382.09;5010347;28;20044;-58
2022/04/24 04:45:07;;;;;;;6.00;5.45;;;;;;;7.01;100.00;162398.25;5012297;28;20045;-58
2022/04/24 04:47:32;;;;;;;11.73;6.30;;;;;;;6.99;100.00;162394.22;5009988;28;20038;-58
2022/04/24 04:49:58;;;;;;;7.53;6.00;;;;;;;6.97;100.00;162388.81;5011386;28;20040;-58
2022/04/24 04:52:23;;;;;;;10.55;7.53;;;;;;;6.97;100.00;162387.50;5009874;28;20049;-58
2022/04/24 04:54:49;;;;;;;7.80;6.50;;;;;;;6.98;100.00;162391.53;5011552;28;20087;-57
2022/04/24 04:57:15;;;;;;;7.47;6.65;;;;;;;6.98;100.00;162391.53;5010507;28;20411;-57
2022/04/24 04:59:40;;;;;;;9.85;6.10;;;;;;;6.99;100.00;162394.22;5010318;28;20029;-57
2022/04/24 05:02:06;;;;;;;9.30;7.60;;;;;;;6.99;100.00;162394.22;5008652;28;20416;-57
2022/04/24 05:04:31;;;;;;;6.47;5.53;;;;;;;7.02;100.00;162399.63;5011481;28;20022;-57
2022/04/24 05:06:56;;;;;;;14.27;6.78;;;;;;;7.06;100.00;162410.38;5010525;28;20068;-57
2022/04/24 05:09:22;;;;;;;6.43;5.38;;;;;;;7.10;100.00;162421.19;5010189;28;20018;-56
2022/04/24 05:11:47;;;;;;;10.93;6.45;;;;;;;7.11;100.00;162423.88;5009829;28;20058;-56
2022/04/24 05:14:13;;;;;;;6.80;5.88;;;;;;;7.15;100.00;162434.63;5011585;28;20029;-56
2022/04/24 05:16:38;;;;;;;7.95;6.28;;;;;;;7.19;100.00;162445.38;5008567;28;20046;-56
2022/04/24 05:19:06;;;;;;;9.65;6.40;;;;;;;7.21;100.00;162450.78;5010695;28;20024;-56
2022/04/24 05:21:31;;;;;;;8.07;6.20;;;;;;;7.23;100.00;162456.19;5009302;28;20036;-57
2022/04/24 05:23:57;;;;;;;6.53;5.45;;;;;;;7.27;100.00;162465.63;5009417;28;20030;-57
2022/04/24 05:26:22;;;;;;;7.90;5.85;;;;;;;7.31;100.00;162476.38;5008700;28;20041;-57
2022/04/24 05:28:47;;;;;;;9.25;6.15;;;;;;;7.34;100.00;162483.09;5010758;28;20030;-57
2022/04/24 05:31:13;;;;;;;6.25;5.68;;;;;;;7.36;100.00;162489.88;5008749;28;20038;-56
2022/04/24 05:33:38;;;;;;;6.45;5.78;;;;;;;7.39;100.00;162496.59;5009145;28;20022;-57
2022/04/24 05:36:07;;;;;;;9.32;5.80;;;;;;;7.45;100.00;162512.75;5009491;28;20034;-57
2022/04/24 05:38:33;;;;;;;7.07;6.40;;;;;;;7.49;100.00;162523.50;5009426;28;20455;-57
2022/04/24 05:40:58;;;;;;;6.20;5.60;;;;;;;7.55;100.00;162539.72;5009212;28;20056;-57
2022/04/24 05:43:23;;;;;;;7.47;6.53;;;;;;;7.58;100.00;162547.75;5009980;28;20383;-57
2022/04/24 05:45:49;;;;;;;7.13;6.28;;;;;;;7.63;100.00;162559.91;5008006;28;20034;-57
2022/04/24 05:48:15;;;;;;;7.72;6.00;;;;;;;7.73;100.00;162585.47;5010184;28;20041;-57
2022/04/24 05:50:41;;;;;;;8.65;7.32;;;;;;;7.78;100.00;162600.31;5008123;28;20026;-57
2022/04/24 05:53:06;;;;;;;9.35;6.25;;;;;;;7.80;100.00;162604.34;5009826;28;20034;-56
2022/04/24 05:55:31;;;;;;;6.38;5.78;;;;;;;7.87;100.00;162623.22;5009270;28;20029;-57
2022/04/24 05:57:57;;;;;;;8.48;5.72;;;;;;;7.95;100.00;162643.44;5008238;28;20045;-57
2022/04/24 06:00:22;;;;;;;6.75;5.85;;;;;;;8.00;100.00;162656.91;5009471;28;20382;-56
2022/04/24 06:02:48;;;;;;;6.80;6.13;;;;;;;8.09;100.00;162679.81;5007501;28;20045;-56
2022/04/24 06:05:13;;;;;;;10.85;5.88;;;;;;;8.12;100.00;162687.91;5009968;28;20100;-56
2022/04/24 06:07:41;;;;;;;7.45;6.05;;;;;;;8.18;100.00;162702.75;5008077;28;20359;-57
2022/04/24 06:10:08;;;;;;;5.85;5.30;;;;;;;8.23;100.00;162717.53;5009118;28;20080;-56
2022/04/24 06:12:56;;;;;;;6.47;5.45;;;;;;;8.32;100.00;162739.09;5007932;28;20100;-56
2022/04/24 06:15:26;;;;;;;8.35;5.38;;;;;;;8.39;100.00;162757.97;5007695;28;20021;-57
2022/04/24 06:17:57;;;;;;;5.82;5.32;;;;;;;8.44;100.00;162771.50;5007629;28;20515;-57
2022/04/24 06:20:23;;;;;;;6.18;5.30;;;;;;;8.50;100.00;162787.72;5008319;28;20029;-56
2022/04/24 06:22:54;;;;;;;10.90;6.60;;;;;;;8.60;100.00;162811.97;5006363;28;20042;-56
2022/04/24 06:25:21;;;;;;;7.22;5.00;;;;;;;8.66;100.00;162829.47;5008131;28;20030;-56
2022/04/24 06:27:48;;;;;;;23.00;7.38;;;;;;;8.71;100.00;162841.63;5007907;28;20042;-57
2022/04/24 06:30:16;;;;;;;9.55;5.80;;;;;;;8.81;100.00;162868.59;5008853;28;20022;-56
2022/04/24 06:32:42;;;;;;;6.28;5.68;;;;;;;8.86;100.00;162880.75;5007838;28;20644;-56
2022/04/24 06:35:09;;;;;;;6.15;5.60;;;;;;;8.95;100.00;162904.97;5009703;28;20034;-56
2022/04/24 06:37:39;;;;;;;6.22;5.50;;;;;;;8.96;100.00;162906.34;5007234;28;20034;-56
2022/04/24 06:40:06;;;;;;;7.75;6.43;;;;;;;9.06;100.00;162933.28;5009649;28;20037;-56
2022/04/24 06:42:32;;;;;;;7.20;5.22;;;;;;;9.19;100.00;162968.38;5007612;28;20045;-56
2022/04/24 06:44:57;;;;;;;7.57;4.78;;;;;;;9.26;100.00;162984.56;5010909;28;20030;-56
2022/04/24 06:47:22;;;;;;;10.70;5.93;;;;;;;9.39;100.00;163018.25;5011275;28;20087;-56
2022/04/24 06:49:48;;;;;;;10.38;7.55;;;;;;;9.37;100.00;163014.22;5013072;28;20113;-56
2022/04/24 06:52:13;;;;;;;7.20;5.55;;;;;;;9.39;100.00;163018.25;5010164;28;20030;-57
2022/04/24 06:54:38;;;;;;;6.97;6.28;;;;;;;9.50;100.00;163049.28;5009086;28;20091;-56
2022/04/24 06:57:04;;;;;;;6.28;5.68;;;;;;;9.82;100.00;163132.94;5010412;28;20050;-56
2022/04/24 06:59:29;;;;;;;7.85;5.28;;;;;;;10.17;100.00;163223.34;5011751;28;20033;-56
2022/04/24 07:01:55;;;;;;;9.95;5.00;;;;;;;10.81;100.00;163389.41;5004812;28;20065;-56
2022/04/24 07:04:20;;;;;;;6.63;4.82;;;;;;;11.74;100.00;163633.81;5002394;28;20056;-56
2022/04/24 07:06:45;;;;;;;7.95;6.60;;;;;;;13.20;100.00;164014.94;5012106;28;20591;-56
2022/04/24 07:09:11;;;;;;;10.50;6.55;;;;;;;13.83;100.00;164179.97;5020430;28;20026;-56
2022/04/24 07:11:36;;;;;;;7.07;4.72;;;;;;;14.36;100.00;164319.28;5020990;28;20029;-56
2022/04/24 07:14:02;;;;;;;6.80;5.03;;;;;;;14.60;100.00;164384.25;5026814;28;20022;-56
2022/04/24 07:16:27;;;;;;;7.35;4.68;;;;;;;14.31;100.00;164307.09;5020176;28;20061;-57
2022/04/24 07:18:53;;;;;;;17.98;5.93;;;;;;;14.73;100.00;164416.75;5028250;28;20115;-57
2022/04/24 07:21:18;;;;;;;7.20;4.65;;;;;;;15.41;100.00;164595.41;5025079;28;20042;-57
2022/04/24 07:23:43;;;;;;;6.50;5.15;;;;;;;15.91;100.00;164725.41;5023371;28;20465;-55
2022/04/24 07:26:09;;;;;;;6.70;4.22;;;;;;;15.61;98.28;164646.84;5031479;28;20410;-56
2022/04/24 07:28:35;;;;;;;10.85;5.38;;;;;;;14.78;99.82;164430.25;5032799;28;20028;-56
2022/04/24 07:31:00;;;;;;;6.07;5.47;;;;;;;15.11;100.00;164516.91;5030698;28;20033;-55
2022/04/24 07:33:25;;;;;;;7.20;5.43;;;;;;;15.10;100.00;164514.19;5032510;28;20635;-55
2022/04/24 07:35:51;;;;;;;7.28;5.95;;;;;;;15.55;95.09;164633.31;5030484;28;20412;-56
2022/04/24 07:38:16;;;;;;;5.10;4.70;;;;;;;15.21;94.99;164544.00;5031560;28;20025;-56
2022/04/24 07:40:41;;;;;;;4.88;4.45;;;;;;;15.16;97.30;164529.09;5029303;28;20485;-55
2022/04/24 07:43:11;;;;;;;8.75;5.18;;;;;;;15.66;96.92;164661.75;5032523;28;20366;-56
2022/04/24 07:45:39;;;;;;;8.10;5.93;;;;;;;15.88;94.68;164718.66;5030417;28;20140;-55
2022/04/24 07:48:06;;;;;;;5.72;5.22;;;;;;;15.88;92.53;164717.31;5032175;28;20048;-56
2022/04/24 07:50:35;;;;;;;5.10;4.65;;;;;;;16.02;95.03;164755.22;5032512;28;20025;-55
2022/04/24 07:53:02;;;;;;;8.63;5.53;;;;;;;15.56;90.96;164634.69;5010115;28;20041;-56
2022/04/24 07:55:27;;;;;;;17.02;5.57;;;;;;;15.45;91.66;164604.88;5005985;28;20181;-56
2022/04/24 07:57:54;;;;;;;5.65;4.10;;;;;;;14.74;94.95;164419.47;4991061;28;20624;-55
2022/04/24 08:00:21;;;;;;;9.05;4.68;;;;;;;15.07;95.75;164506.09;4991006;28;20097;-55
2022/04/24 08:03:06;;;;;;;6.43;5.35;;;;;;;15.17;94.40;164531.81;4990930;28;20480;-55
2022/04/24 08:05:58;;;;;;;8.30;5.03;;;;;;;14.58;94.98;164378.81;5009700;28;20514;-56
2022/04/24 08:08:24;;;;;;;8.95;6.10;;;;;;;14.52;98.64;164361.25;5027228;28;20041;-55
2022/04/24 08:10:57;;;;;;;11.45;6.40;;;;;;;15.05;99.30;164500.66;5021979;28;20717;-56
2022/04/24 08:13:24;;;;;;;8.20;6.45;;;;;;;15.03;94.96;164496.63;5025310;28;20495;-55
2022/04/24 08:15:50;;;;;;;8.93;6.28;;;;;;;15.13;99.34;164522.31;5029208;28;20657;-55
2022/04/24 08:18:16;;;;;;;7.15;5.40;;;;;;;15.45;97.47;164606.22;5024751;28;20040;-55
2022/04/24 08:20:42;;;;;;;10.70;5.07;;;;;;;15.78;95.03;164692.88;5029291;28;20493;-55
2022/04/24 08:23:10;;;;;;;5.85;5.20;;;;;;;15.94;94.99;164733.56;5016502;28;20059;-55
2022/04/24 08:25:36;;;;;;;6.72;5.07;;;;;;;15.52;93.42;164625.22;5029030;28;20540;-55
2022/04/24 08:28:06;;;;;;;7.20;5.38;;;;;;;15.50;91.71;164619.78;5031864;28;20022;-55
2022/04/24 08:30:33;;;;;;;11.13;6.07;;;;;;;15.72;96.85;164676.66;5025487;28;20064;-55
2022/04/24 08:32:58;;;;;;;7.20;5.03;;;;;;;15.91;93.01;164725.41;4998909;28;20521;-55
2022/04/24 08:35:23;;;;;;;10.77;5.68;;;;;;;16.00;90.08;164749.81;4991412;28;20037;-56
2022/04/24 08:37:49;;;;;;;7.80;6.18;;;;;;;16.14;89.70;164787.72;4990411;28;20118;-55
2022/04/24 08:40:17;;;;;;;8.85;5.30;;;;;;;17.07;89.40;165031.63;5011052;28;20041;-55
2022/04/24 08:42:42;;;;;;;7.47;4.97;;;;;;;16.98;91.80;165005.91;5009762;28;20065;-55
2022/04/24 08:45:13;;;;;;;4.40;4.00;;;;;;;16.71;84.66;164936.75;5010733;28;20540;-55
2022/04/24 08:47:38;;;;;;;5.35;4.80;;;;;;;16.63;84.80;164915.06;5026387;28;20080;-56
2022/04/24 08:50:04;;;;;;;7.43;4.95;;;;;;;17.22;86.16;165070.91;5031379;28;20395;-55
2022/04/24 08:52:30;;;;;;;6.35;5.50;;;;;;;17.70;83.80;165195.59;5028926;28;20037;-55
2022/04/24 08:54:58;;;;;;;9.57;6.65;;;;;;;17.69;81.33;165194.22;5030663;28;20025;-55
2022/04/24 08:57:26;;;;;;;14.93;7.10;;;;;;;17.38;82.19;165111.56;5029907;28;20040;-56
2022/04/24 08:59:52;;;;;;;;;;;;;;;17.42;81.31;165123.75;5030405;28;20124;-55
2022/04/24 09:02:17;;;;;;;6.45;5.25;;;;;;;17.01;81.62;165015.38;5029215;28;20016;-55
2022/04/24 09:04:42;;;;;;;5.07;4.57;;;;;;;16.54;83.19;164890.66;5030912;28;20048;-55
2022/04/24 09:07:09;;;;;;;7.15;5.22;;;;;;;16.26;83.61;164817.53;5028744;28;20048;-56
2022/04/24 09:09:42;;;;;;;6.30;5.60;;;;;;;16.93;88.89;164993.69;5030517;28;20068;-55
2022/04/24 09:12:10;;;;;;;6.88;5.75;;;;;;;17.02;84.53;165018.03;5018521;28;20045;-57
2022/04/24 09:14:35;;;;;;;8.93;4.72;;;;;;;16.90;82.42;164985.50;5019579;28;20075;-56
2022/04/24 09:17:05;;;;;;;6.07;4.35;;;;;;;17.17;83.37;165057.38;5023111;28;20597;-56
2022/04/24 09:19:31;;;;;;;5.38;4.88;;;;;;;16.76;82.14;164950.28;5029689;28;20037;-56
2022/04/24 09:22:02;;;;;;;9.82;4.88;;;;;;;17.04;80.79;165022.16;5023745;28;20120;-55
2022/04/24 09:24:52;;;;;;;13.90;8.43;;;;;;;17.42;82.94;165122.44;5028324;28;20052;-55
2022/04/24 09:27:28;;;;;;;9.25;6.18;;;;;;;18.03;80.69;165283.75;5029314;28;20060;-55
2022/04/24 09:29:56;;;;;;;11.15;6.32;;;;;;;18.44;86.71;165389.50;5029857;28;20385;-55
2022/04/24 09:32:23;;;;;;;5.30;4.75;;;;;;;18.08;80.12;165295.97;5028384;28;20511;-55
2022/04/24 09:34:49;;;;;;;18.35;6.05;;;;;;;17.51;78.23;165145.44;5031019;28;20025;-55
2022/04/24 09:37:15;;;;;;;8.70;5.25;;;;;;;17.02;78.35;165018.03;5028089;28;20041;-55
2022/04/24 09:39:40;;;;;;;8.85;4.88;;;;;;;16.47;80.38;164874.41;5029731;28;20596;-55
2022/04/24 09:42:11;;;;;;;6.53;5.18;;;;;;;16.44;81.49;164866.28;5028858;28;20049;-55
2022/04/24 09:44:39;;;;;;;5.43;4.90;;;;;;;16.63;82.02;164915.06;5028963;28;20514;-55
2022/04/24 09:47:05;;;;;;;9.30;4.38;;;;;;;16.79;79.55;164958.38;5028931;28;20511;-55
2022/04/24 09:49:35;;;;;;;8.32;5.03;;;;;;;17.40;82.93;165117.00;5030080;28;20025;-55
2022/04/24 09:52:02;;;;;;;8.35;4.55;;;;;;;17.56;78.83;165159.00;5026479;28;20061;-55
2022/04/24 09:54:27;;;;;;;5.30;4.85;;;;;;;17.64;78.67;165180.69;5018164;28;20536;-55
2022/04/24 09:56:53;;;;;;;7.07;3.78;;;;;;;17.62;79.94;165173.91;5028997;28;20120;-55
2022/04/24 09:59:19;;;;;;;10.07;4.50;;;;;;;17.81;80.79;165225.41;5028922;28;20029;-55
2022/04/24 10:01:45;;;;;;;8.40;6.00;;;;;;;18.02;81.96;165281.06;5028041;28;20079;-55
2022/04/24 10:04:11;;;;;;;8.98;6.18;;;;;;;18.03;77.39;165283.75;5030000;28;20030;-55
2022/04/24 10:06:40;;;;;;;6.43;4.32;;;;;;;17.60;79.56;165169.84;5020483;28;20128;-55
2022/04/24 10:09:08;;;;;;;6.88;4.22;;;;;;;17.94;79.98;165259.31;5024925;28;20028;-57
2022/04/24 10:11:34;;;;;;;12.98;4.55;;;;;;;17.67;76.71;165188.84;5019731;28;20053;-55
2022/04/24 10:14:06;;;;;;;5.50;4.68;;;;;;;18.02;80.58;165281.06;5018458;28;20026;-56
2022/04/24 10:16:34;;;;;;;6.93;5.07;;;;;;;18.22;77.93;165333.94;5018846;28;20881;-56
2022/04/24 10:19:21;;;;;;;6.45;4.22;;;;;;;18.22;78.52;165332.56;5018355;28;20120;-55
2022/04/24 10:22:15;;;;;;;9.27;4.57;;;;;;;18.34;75.51;165365.13;5017340;28;20479;-55
2022/04/24 10:24:42;;;;;;;9.07;4.32;;;;;;;18.56;79.10;165422.06;5021401;28;20040;-56
2022/04/24 10:27:07;;;;;;;6.30;4.28;;;;;;;18.47;74.49;165397.66;5016578;28;20472;-56
2022/04/24 10:29:33;;;;;;;9.63;4.47;;;;;;;18.58;74.99;165427.47;5021128;28;20028;-56
2022/04/24 10:31:59;;;;;;;12.82;5.22;;;;;;;18.29;75.13;165351.53;5016911;28;21308;-56
2022/04/24 10:34:26;;;;;;;10.13;6.07;;;;;;;18.56;76.82;165422.06;5029879;28;20032;-55
2022/04/24 10:36:57;;;;;;;6.67;4.73;;;;;;;18.49;75.06;165404.44;5027883;28;20049;-56
2022/04/24 10:39:27;;;;;;;4.60;4.10;;;;;;;18.67;72.30;165450.56;5028509;28;20404;-55
2022/04/24 10:41:54;;;;;;;6.82;4.57;;;;;;;18.33;73.73;165362.41;5028107;28;20095;-55
2022/04/24 10:44:19;;;;;;;6.05;4.22;;;;;;;18.67;73.77;165450.56;5029592;28;20061;-55
2022/04/24 10:46:47;;;;;;;4.88;4.03;;;;;;;18.87;70.91;165503.47;5027771;28;20044;-55
2022/04/24 10:49:15;;;;;;;6.10;4.82;;;;;;;19.01;74.77;165541.47;5029693;28;20037;-55
2022/04/24 10:51:43;;;;;;;6.03;4.30;;;;;;;18.89;69.64;165508.84;5027635;28;20048;-55
2022/04/24 10:54:13;;;;;;;9.10;4.10;;;;;;;18.45;71.26;165393.59;5019175;28;20028;-56
2022/04/24 10:56:41;;;;;;;6.30;4.47;;;;;;;18.74;73.70;165468.16;5017669;28;20049;-55
2022/04/24 10:59:16;;;;;;;;;;;;;;;19.38;72.38;165636.44;5023599;28;20018;-55
2022/04/24 11:01:44;;;;;;;8.15;4.60;;;;;;;19.77;73.29;165739.56;5020713;28;19921;-55
2022/04/24 11:04:14;;;;;;;;;;;;;;;20.42;72.22;165911.94;5030153;28;20035;-56
2022/04/24 11:06:53;;;;;;;5.93;3.65;;;;;;;20.18;66.37;165848.16;5027267;28;20465;-56
2022/04/24 11:09:19;;;;;;;31.25;4.80;;;;;;;20.28;68.81;165873.94;5028251;28;20048;-56
2022/04/24 11:11:48;;;;;;;6.00;4.03;;;;;;;20.32;67.50;165883.44;5027403;28;20103;-56
2022/04/24 11:14:22;;;;;;;5.40;4.28;;;;;;;19.29;66.52;165613.34;5028856;28;20025;-56
2022/04/24 11:16:53;;;;;;;5.57;4.15;;;;;;;19.62;68.10;165701.53;5027474;28;20088;-55
2022/04/24 11:19:25;;;;;;;5.88;3.95;;;;;;;19.55;67.31;165681.19;5029277;28;20037;-56
2022/04/24 11:21:59;;;;;;;6.93;5.60;;;;;;;19.48;69.25;165663.53;5027668;28;20037;-55